Accueil
METAR-TAF:

METAR-TAF

Aéroports :

Cranfield, Angleterre

latitude: 52-04N, longitude: 000-37W, altitude: 111 m

Observation

Le bulletin a été fait il y a 1 heure et 4 minutes, à 11:20 UTC
Vent 6 kt de nord-ouest
Température 8°C
Humidité 76%
Pression 1018 hPa
Visibilité 10 km ou plus
Nuages épars à une hauteur de 2500 ft
Nuages fragmentés à une hauteur de 3100 ft

METAR: EGTC 031120Z 31006KT 9999 SCT025 BKN031 08/04 Q1018

Heure: 13:24 (12:24 UTC)

Prévision

Le bulletin a été fait il y a 1 heure et 22 minutes, à 11:02 UTC
Prévision valable du 03 à 12 UTC au 03 à 16 UTC
Vent 6 kt de ouest
Visibilité 10 km ou plus
Nuages fragmentés à une hauteur de 4500 ft

TAF: EGTC 031102Z 0312/0316 26006KT 9999 BKN045

Observations et prévisions météorologiques de plus de 4000 aéroports (messages METAR et TAF).

Les stations disponibles sont représentées par des disques jaunes et rouges sur la carte.

Passer la souris dessus pour voir le nom de la station.

Cliquer dessus pour voir les observations et prévisions météorologiques.

Pour changer de carte: cliquez sur les boutons verts avec une croix noire pour zoomer, sur le bouton vert avec un tiret pour effectuer un zoom arrière, ou sur les flèches vertes pour les cartes adjacentes.


METAR-TAF: